sensor_id;sensor_type;location;lat;lon;timestamp;P1;durP1;ratioP1;P2;durP2;ratioP2
43363;SDS011;40636;52.424;-1.948;2022-12-29T00:00:53;10.63;;;1.60;;
43363;SDS011;40636;52.424;-1.948;2022-12-29T00:03:20;5.05;;;2.67;;
43363;SDS011;40636;52.424;-1.948;2022-12-29T00:05:53;3.72;;;1.55;;
43363;SDS011;40636;52.424;-1.948;2022-12-29T00:08:21;10.02;;;2.45;;
43363;SDS011;40636;52.424;-1.948;2022-12-29T00:13:43;24.52;;;3.60;;
43363;SDS011;40636;52.424;-1.948;2022-12-29T00:16:29;7.07;;;1.85;;
43363;SDS011;40636;52.424;-1.948;2022-12-29T00:18:57;10.38;;;2.42;;
43363;SDS011;40636;52.424;-1.948;2022-12-29T00:21:24;8.80;;;1.85;;
43363;SDS011;40636;52.424;-1.948;2022-12-29T00:24:17;8.52;;;2.13;;
43363;SDS011;40636;52.424;-1.948;2022-12-29T00:27:13;7.03;;;2.38;;
43363;SDS011;40636;52.424;-1.948;2022-12-29T00:29:58;8.88;;;2.25;;
43363;SDS011;40636;52.424;-1.948;2022-12-29T00:32:43;8.65;;;1.95;;
43363;SDS011;40636;52.424;-1.948;2022-12-29T00:35:30;8.15;;;2.40;;
43363;SDS011;40636;52.424;-1.948;2022-12-29T00:38:02;10.13;;;1.77;;
43363;SDS011;40636;52.424;-1.948;2022-12-29T00:40:51;4.90;;;1.52;;
43363;SDS011;40636;52.424;-1.948;2022-12-29T00:43:37;13.18;;;2.03;;
43363;SDS011;40636;52.424;-1.948;2022-12-29T00:46:22;7.95;;;2.10;;
43363;SDS011;40636;52.424;-1.948;2022-12-29T00:48:49;9.32;;;1.60;;
43363;SDS011;40636;52.424;-1.948;2022-12-29T00:51:34;10.05;;;2.08;;
43363;SDS011;40636;52.424;-1.948;2022-12-29T00:54:00;6.03;;;1.60;;
43363;SDS011;40636;52.424;-1.948;2022-12-29T00:56:27;6.40;;;1.63;;
43363;SDS011;40636;52.424;-1.948;2022-12-29T00:58:54;10.48;;;2.50;;
43363;SDS011;40636;52.424;-1.948;2022-12-29T01:01:20;11.23;;;2.45;;
43363;SDS011;40636;52.424;-1.948;2022-12-29T01:03:47;11.95;;;2.63;;
43363;SDS011;40636;52.424;-1.948;2022-12-29T01:06:14;10.80;;;2.30;;
43363;SDS011;40636;52.424;-1.948;2022-12-29T01:08:41;10.07;;;2.50;;
43363;SDS011;40636;52.424;-1.948;2022-12-29T01:11:09;8.73;;;2.35;;
43363;SDS011;40636;52.424;-1.948;2022-12-29T01:13:37;20.05;;;4.25;;
43363;SDS011;40636;52.424;-1.948;2022-12-29T01:16:05;19.45;;;2.35;;
43363;SDS011;40636;52.424;-1.948;2022-12-29T01:18:32;18.77;;;3.15;;
43363;SDS011;40636;52.424;-1.948;2022-12-29T01:21:00;14.50;;;2.45;;
43363;SDS011;40636;52.424;-1.948;2022-12-29T01:23:28;11.27;;;3.00;;
43363;SDS011;40636;52.424;-1.948;2022-12-29T01:25:55;13.63;;;2.58;;
43363;SDS011;40636;52.424;-1.948;2022-12-29T01:28:23;19.45;;;3.10;;
43363;SDS011;40636;52.424;-1.948;2022-12-29T01:30:51;12.52;;;3.75;;
43363;SDS011;40636;52.424;-1.948;2022-12-29T01:33:18;13.50;;;3.40;;
43363;SDS011;40636;52.424;-1.948;2022-12-29T01:35:44;8.85;;;2.00;;
43363;SDS011;40636;52.424;-1.948;2022-12-29T01:38:11;10.10;;;2.88;;
43363;SDS011;40636;52.424;-1.948;2022-12-29T01:40:44;10.73;;;2.92;;
43363;SDS011;40636;52.424;-1.948;2022-12-29T01:43:12;18.33;;;2.97;;
43363;SDS011;40636;52.424;-1.948;2022-12-29T01:45:45;21.15;;;3.00;;
43363;SDS011;40636;52.424;-1.948;2022-12-29T01:48:16;13.07;;;3.47;;
43363;SDS011;40636;52.424;-1.948;2022-12-29T01:50:50;11.55;;;2.40;;
43363;SDS011;40636;52.424;-1.948;2022-12-29T01:53:23;13.55;;;3.60;;
43363;SDS011;40636;52.424;-1.948;2022-12-29T01:55:55;14.57;;;2.15;;
43363;SDS011;40636;52.424;-1.948;2022-12-29T01:58:27;16.63;;;3.97;;
43363;SDS011;40636;52.424;-1.948;2022-12-29T02:00:56;19.00;;;3.90;;
43363;SDS011;40636;52.424;-1.948;2022-12-29T02:03:23;18.90;;;4.45;;
43363;SDS011;40636;52.424;-1.948;2022-12-29T02:08:22;9.43;;;2.88;;
43363;SDS011;40636;52.424;-1.948;2022-12-29T02:10:53;16.02;;;2.70;;
43363;SDS011;40636;52.424;-1.948;2022-12-29T02:13:20;11.45;;;2.80;;
43363;SDS011;40636;52.424;-1.948;2022-12-29T02:24:57;7.90;;;1.92;;
43363;SDS011;40636;52.424;-1.948;2022-12-29T02:36:07;13.80;;;2.35;;
43363;SDS011;40636;52.424;-1.948;2022-12-29T02:41:31;11.57;;;2.67;;
43363;SDS011;40636;52.424;-1.948;2022-12-29T02:46:44;9.00;;;1.60;;
43363;SDS011;40636;52.424;-1.948;2022-12-29T02:49:19;11.77;;;3.55;;
43363;SDS011;40636;52.424;-1.948;2022-12-29T02:51:54;3.25;;;1.65;;
43363;SDS011;40636;52.424;-1.948;2022-12-29T02:54:27;10.95;;;2.05;;
43363;SDS011;40636;52.424;-1.948;2022-12-29T02:59:58;7.75;;;1.90;;
43363;SDS011;40636;52.424;-1.948;2022-12-29T03:05:05;9.18;;;2.03;;
43363;SDS011;40636;52.424;-1.948;2022-12-29T03:13:43;2.33;;;1.27;;
43363;SDS011;40636;52.424;-1.948;2022-12-29T03:16:34;2.03;;;0.88;;
43363;SDS011;40636;52.424;-1.948;2022-12-29T03:19:19;2.67;;;1.10;;
43363;SDS011;40636;52.424;-1.948;2022-12-29T03:21:56;2.10;;;0.55;;
43363;SDS011;40636;52.424;-1.948;2022-12-29T03:24:47;3.58;;;1.30;;
43363;SDS011;40636;52.424;-1.948;2022-12-29T03:27:18;3.20;;;0.65;;
43363;SDS011;40636;52.424;-1.948;2022-12-29T03:29:50;1.17;;;0.60;;
43363;SDS011;40636;52.424;-1.948;2022-12-29T03:32:21;1.70;;;0.47;;
43363;SDS011;40636;52.424;-1.948;2022-12-29T03:34:52;0.73;;;0.30;;
43363;SDS011;40636;52.424;-1.948;2022-12-29T03:37:22;0.35;;;0.30;;
43363;SDS011;40636;52.424;-1.948;2022-12-29T03:39:52;0.20;;;0.20;;
43363;SDS011;40636;52.424;-1.948;2022-12-29T03:42:19;0.25;;;0.25;;
43363;SDS011;40636;52.424;-1.948;2022-12-29T03:44:52;0.30;;;0.30;;
43363;SDS011;40636;52.424;-1.948;2022-12-29T03:47:22;0.30;;;0.30;;
43363;SDS011;40636;52.424;-1.948;2022-12-29T03:49:49;0.30;;;0.30;;
43363;SDS011;40636;52.424;-1.948;2022-12-29T03:52:17;0.40;;;0.40;;
43363;SDS011;40636;52.424;-1.948;2022-12-29T03:54:44;0.82;;;0.38;;
43363;SDS011;40636;52.424;-1.948;2022-12-29T03:57:11;0.30;;;0.30;;
43363;SDS011;40636;52.424;-1.948;2022-12-29T03:59:37;0.30;;;0.30;;
43363;SDS011;40636;52.424;-1.948;2022-12-29T04:02:04;0.40;;;0.40;;
43363;SDS011;40636;52.424;-1.948;2022-12-29T04:04:31;0.40;;;0.40;;
43363;SDS011;40636;52.424;-1.948;2022-12-29T04:06:58;3.60;;;0.40;;
43363;SDS011;40636;52.424;-1.948;2022-12-29T04:09:24;1.55;;;0.40;;
43363;SDS011;40636;52.424;-1.948;2022-12-29T04:11:51;0.60;;;0.60;;
43363;SDS011;40636;52.424;-1.948;2022-12-29T04:14:17;5.00;;;0.68;;
43363;SDS011;40636;52.424;-1.948;2022-12-29T04:16:44;1.00;;;0.55;;
43363;SDS011;40636;52.424;-1.948;2022-12-29T04:19:12;2.03;;;0.43;;
43363;SDS011;40636;52.424;-1.948;2022-12-29T04:21:38;0.30;;;0.30;;
43363;SDS011;40636;52.424;-1.948;2022-12-29T04:24:05;0.47;;;0.47;;
43363;SDS011;40636;52.424;-1.948;2022-12-29T04:26:33;1.10;;;0.40;;
43363;SDS011;40636;52.424;-1.948;2022-12-29T04:28:59;0.47;;;0.47;;
43363;SDS011;40636;52.424;-1.948;2022-12-29T04:31:26;2.17;;;0.50;;
43363;SDS011;40636;52.424;-1.948;2022-12-29T04:33:53;0.30;;;0.30;;
43363;SDS011;40636;52.424;-1.948;2022-12-29T04:36:20;1.17;;;0.60;;
43363;SDS011;40636;52.424;-1.948;2022-12-29T04:38:54;0.57;;;0.47;;
43363;SDS011;40636;52.424;-1.948;2022-12-29T04:41:21;0.38;;;0.38;;
43363;SDS011;40636;52.424;-1.948;2022-12-29T04:43:48;1.90;;;0.50;;
43363;SDS011;40636;52.424;-1.948;2022-12-29T04:46:14;2.08;;;0.55;;
43363;SDS011;40636;52.424;-1.948;2022-12-29T04:48:43;1.05;;;0.40;;
43363;SDS011;40636;52.424;-1.948;2022-12-29T04:51:10;0.93;;;0.60;;
43363;SDS011;40636;52.424;-1.948;2022-12-29T04:53:36;0.43;;;0.43;;
43363;SDS011;40636;52.424;-1.948;2022-12-29T04:56:03;0.40;;;0.40;;
43363;SDS011;40636;52.424;-1.948;2022-12-29T04:58:30;0.30;;;0.30;;
43363;SDS011;40636;52.424;-1.948;2022-12-29T05:00:57;0.50;;;0.50;;
43363;SDS011;40636;52.424;-1.948;2022-12-29T05:03:23;0.50;;;0.40;;
43363;SDS011;40636;52.424;-1.948;2022-12-29T05:05:52;1.02;;;0.98;;
43363;SDS011;40636;52.424;-1.948;2022-12-29T05:08:21;2.20;;;0.60;;
43363;SDS011;40636;52.424;-1.948;2022-12-29T05:10:53;4.50;;;0.63;;
43363;SDS011;40636;52.424;-1.948;2022-12-29T05:13:20;0.60;;;0.52;;
43363;SDS011;40636;52.424;-1.948;2022-12-29T05:15:53;2.97;;;1.08;;
43363;SDS011;40636;52.424;-1.948;2022-12-29T05:18:20;0.45;;;0.45;;
43363;SDS011;40636;52.424;-1.948;2022-12-29T05:20:47;0.80;;;0.77;;
43363;SDS011;40636;52.424;-1.948;2022-12-29T05:23:14;1.27;;;0.40;;
43363;SDS011;40636;52.424;-1.948;2022-12-29T05:25:43;0.77;;;0.60;;
43363;SDS011;40636;52.424;-1.948;2022-12-29T05:28:12;2.22;;;0.60;;
43363;SDS011;40636;52.424;-1.948;2022-12-29T05:30:39;1.02;;;0.52;;
43363;SDS011;40636;52.424;-1.948;2022-12-29T05:33:06;0.52;;;0.52;;
43363;SDS011;40636;52.424;-1.948;2022-12-29T05:35:33;0.90;;;0.57;;
43363;SDS011;40636;52.424;-1.948;2022-12-29T05:37:59;1.80;;;0.80;;
43363;SDS011;40636;52.424;-1.948;2022-12-29T05:40:26;3.53;;;0.80;;
43363;SDS011;40636;52.424;-1.948;2022-12-29T05:42:53;1.92;;;0.70;;
43363;SDS011;40636;52.424;-1.948;2022-12-29T05:45:19;6.30;;;0.98;;
43363;SDS011;40636;52.424;-1.948;2022-12-29T05:47:46;2.72;;;0.80;;
43363;SDS011;40636;52.424;-1.948;2022-12-29T05:50:13;0.40;;;0.40;;
43363;SDS011;40636;52.424;-1.948;2022-12-29T05:52:39;1.50;;;0.70;;
43363;SDS011;40636;52.424;-1.948;2022-12-29T05:55:06;3.40;;;0.80;;
43363;SDS011;40636;52.424;-1.948;2022-12-29T05:57:33;2.58;;;0.60;;
43363;SDS011;40636;52.424;-1.948;2022-12-29T06:00:00;1.10;;;0.85;;
43363;SDS011;40636;52.424;-1.948;2022-12-29T06:02:26;2.30;;;0.63;;
43363;SDS011;40636;52.424;-1.948;2022-12-29T06:04:53;1.38;;;0.70;;
43363;SDS011;40636;52.424;-1.948;2022-12-29T06:07:20;2.22;;;0.70;;
43363;SDS011;40636;52.424;-1.948;2022-12-29T06:09:47;2.03;;;0.50;;
43363;SDS011;40636;52.424;-1.948;2022-12-29T06:12:13;0.65;;;0.60;;
43363;SDS011;40636;52.424;-1.948;2022-12-29T06:14:40;3.35;;;0.70;;
43363;SDS011;40636;52.424;-1.948;2022-12-29T06:17:07;1.85;;;0.70;;
43363;SDS011;40636;52.424;-1.948;2022-12-29T06:19:33;2.40;;;0.57;;
43363;SDS011;40636;52.424;-1.948;2022-12-29T06:22:00;1.73;;;0.88;;
43363;SDS011;40636;52.424;-1.948;2022-12-29T06:24:26;2.83;;;0.60;;
43363;SDS011;40636;52.424;-1.948;2022-12-29T06:26:53;1.23;;;0.50;;
43363;SDS011;40636;52.424;-1.948;2022-12-29T06:29:20;0.63;;;0.63;;
43363;SDS011;40636;52.424;-1.948;2022-12-29T06:31:47;0.73;;;0.70;;
43363;SDS011;40636;52.424;-1.948;2022-12-29T06:34:15;1.42;;;0.73;;
43363;SDS011;40636;52.424;-1.948;2022-12-29T06:36:42;1.50;;;0.57;;
43363;SDS011;40636;52.424;-1.948;2022-12-29T06:39:09;1.75;;;0.60;;
43363;SDS011;40636;52.424;-1.948;2022-12-29T06:41:36;1.15;;;0.80;;
43363;SDS011;40636;52.424;-1.948;2022-12-29T06:44:04;2.97;;;0.80;;
43363;SDS011;40636;52.424;-1.948;2022-12-29T06:46:30;0.70;;;0.70;;
43363;SDS011;40636;52.424;-1.948;2022-12-29T06:48:57;2.33;;;0.88;;
43363;SDS011;40636;52.424;-1.948;2022-12-29T06:51:24;3.85;;;0.93;;
43363;SDS011;40636;52.424;-1.948;2022-12-29T06:53:51;1.15;;;0.90;;
43363;SDS011;40636;52.424;-1.948;2022-12-29T06:56:17;2.10;;;0.70;;
43363;SDS011;40636;52.424;-1.948;2022-12-29T06:58:44;1.27;;;0.70;;
43363;SDS011;40636;52.424;-1.948;2022-12-29T07:01:11;1.65;;;0.75;;
43363;SDS011;40636;52.424;-1.948;2022-12-29T07:03:40;0.63;;;0.57;;
43363;SDS011;40636;52.424;-1.948;2022-12-29T07:06:08;0.90;;;0.82;;
43363;SDS011;40636;52.424;-1.948;2022-12-29T07:08:35;0.90;;;0.60;;
43363;SDS011;40636;52.424;-1.948;2022-12-29T07:11:02;2.90;;;0.70;;
43363;SDS011;40636;52.424;-1.948;2022-12-29T07:13:29;1.70;;;0.95;;
43363;SDS011;40636;52.424;-1.948;2022-12-29T07:15:55;2.75;;;0.80;;
43363;SDS011;40636;52.424;-1.948;2022-12-29T07:18:22;2.42;;;0.80;;
43363;SDS011;40636;52.424;-1.948;2022-12-29T07:20:49;2.00;;;0.95;;
43363;SDS011;40636;52.424;-1.948;2022-12-29T07:23:15;3.22;;;1.00;;
43363;SDS011;40636;52.424;-1.948;2022-12-29T07:25:42;4.85;;;0.88;;
43363;SDS011;40636;52.424;-1.948;2022-12-29T07:28:09;2.50;;;0.73;;
43363;SDS011;40636;52.424;-1.948;2022-12-29T07:30:36;1.70;;;1.60;;
43363;SDS011;40636;52.424;-1.948;2022-12-29T07:33:03;1.90;;;0.77;;
43363;SDS011;40636;52.424;-1.948;2022-12-29T07:35:30;2.50;;;0.77;;
43363;SDS011;40636;52.424;-1.948;2022-12-29T07:37:57;2.60;;;1.05;;
43363;SDS011;40636;52.424;-1.948;2022-12-29T07:40:23;1.48;;;0.60;;
43363;SDS011;40636;52.424;-1.948;2022-12-29T07:42:50;3.33;;;0.77;;
43363;SDS011;40636;52.424;-1.948;2022-12-29T07:45:17;2.40;;;1.40;;
43363;SDS011;40636;52.424;-1.948;2022-12-29T07:47:47;3.08;;;1.05;;
43363;SDS011;40636;52.424;-1.948;2022-12-29T07:50:14;1.27;;;0.90;;
43363;SDS011;40636;52.424;-1.948;2022-12-29T07:52:41;1.00;;;0.75;;
43363;SDS011;40636;52.424;-1.948;2022-12-29T07:55:07;2.28;;;0.80;;
43363;SDS011;40636;52.424;-1.948;2022-12-29T07:57:35;0.95;;;0.52;;
43363;SDS011;40636;52.424;-1.948;2022-12-29T08:00:02;1.27;;;1.05;;
43363;SDS011;40636;52.424;-1.948;2022-12-29T08:02:30;2.47;;;0.85;;
43363;SDS011;40636;52.424;-1.948;2022-12-29T08:04:56;2.58;;;0.77;;
43363;SDS011;40636;52.424;-1.948;2022-12-29T08:07:23;2.28;;;0.77;;
43363;SDS011;40636;52.424;-1.948;2022-12-29T08:09:50;2.05;;;0.60;;
43363;SDS011;40636;52.424;-1.948;2022-12-29T08:12:17;4.20;;;1.00;;
43363;SDS011;40636;52.424;-1.948;2022-12-29T08:14:44;6.85;;;0.98;;
43363;SDS011;40636;52.424;-1.948;2022-12-29T08:17:11;6.53;;;0.90;;
43363;SDS011;40636;52.424;-1.948;2022-12-29T08:19:38;4.13;;;0.95;;
43363;SDS011;40636;52.424;-1.948;2022-12-29T08:22:05;2.40;;;0.80;;
43363;SDS011;40636;52.424;-1.948;2022-12-29T08:24:32;3.38;;;1.00;;
43363;SDS011;40636;52.424;-1.948;2022-12-29T08:26:58;3.75;;;1.15;;
43363;SDS011;40636;52.424;-1.948;2022-12-29T08:29:37;4.55;;;0.85;;
43363;SDS011;40636;52.424;-1.948;2022-12-29T08:32:04;3.90;;;1.05;;
43363;SDS011;40636;52.424;-1.948;2022-12-29T08:34:31;5.18;;;1.35;;
43363;SDS011;40636;52.424;-1.948;2022-12-29T08:36:59;3.80;;;0.85;;
43363;SDS011;40636;52.424;-1.948;2022-12-29T08:39:26;2.63;;;0.80;;
43363;SDS011;40636;52.424;-1.948;2022-12-29T08:41:53;1.77;;;0.60;;
43363;SDS011;40636;52.424;-1.948;2022-12-29T08:44:21;1.27;;;0.65;;
43363;SDS011;40636;52.424;-1.948;2022-12-29T08:46:48;3.67;;;0.93;;
43363;SDS011;40636;52.424;-1.948;2022-12-29T08:49:14;3.30;;;0.75;;
43363;SDS011;40636;52.424;-1.948;2022-12-29T08:51:41;2.08;;;0.82;;
43363;SDS011;40636;52.424;-1.948;2022-12-29T08:54:08;1.67;;;0.57;;
43363;SDS011;40636;52.424;-1.948;2022-12-29T08:56:35;1.67;;;0.63;;
43363;SDS011;40636;52.424;-1.948;2022-12-29T08:59:02;0.57;;;0.57;;
43363;SDS011;40636;52.424;-1.948;2022-12-29T09:01:29;0.77;;;0.60;;
43363;SDS011;40636;52.424;-1.948;2022-12-29T09:03:56;2.63;;;0.50;;
43363;SDS011;40636;52.424;-1.948;2022-12-29T09:06:41;6.28;;;1.40;;
43363;SDS011;40636;52.424;-1.948;2022-12-29T09:09:08;7.57;;;1.20;;
43363;SDS011;40636;52.424;-1.948;2022-12-29T09:11:35;1.35;;;0.60;;
43363;SDS011;40636;52.424;-1.948;2022-12-29T09:14:02;5.68;;;0.85;;
43363;SDS011;40636;52.424;-1.948;2022-12-29T09:16:29;1.88;;;1.10;;
43363;SDS011;40636;52.424;-1.948;2022-12-29T09:18:56;3.47;;;1.63;;
43363;SDS011;40636;52.424;-1.948;2022-12-29T09:21:23;4.70;;;1.60;;
43363;SDS011;40636;52.424;-1.948;2022-12-29T09:23:50;3.17;;;0.85;;
43363;SDS011;40636;52.424;-1.948;2022-12-29T09:26:16;1.35;;;0.73;;
43363;SDS011;40636;52.424;-1.948;2022-12-29T09:28:43;2.13;;;1.02;;
43363;SDS011;40636;52.424;-1.948;2022-12-29T09:31:11;3.50;;;1.52;;
43363;SDS011;40636;52.424;-1.948;2022-12-29T09:33:38;7.22;;;1.08;;
43363;SDS011;40636;52.424;-1.948;2022-12-29T09:36:05;3.60;;;1.08;;
43363;SDS011;40636;52.424;-1.948;2022-12-29T09:38:32;9.00;;;1.00;;
43363;SDS011;40636;52.424;-1.948;2022-12-29T09:41:01;3.45;;;0.88;;
43363;SDS011;40636;52.424;-1.948;2022-12-29T09:46:27;2.15;;;1.45;;
43363;SDS011;40636;52.424;-1.948;2022-12-29T09:51:46;5.22;;;1.25;;
43363;SDS011;40636;52.424;-1.948;2022-12-29T09:54:22;3.65;;;0.93;;
43363;SDS011;40636;52.424;-1.948;2022-12-29T09:57:09;5.63;;;0.90;;
43363;SDS011;40636;52.424;-1.948;2022-12-29T09:59:42;2.20;;;1.35;;
43363;SDS011;40636;52.424;-1.948;2022-12-29T10:02:13;2.65;;;0.82;;
43363;SDS011;40636;52.424;-1.948;2022-12-29T10:04:55;4.30;;;1.08;;
43363;SDS011;40636;52.424;-1.948;2022-12-29T10:07:27;4.07;;;0.90;;
43363;SDS011;40636;52.424;-1.948;2022-12-29T10:10:14;5.18;;;1.27;;
43363;SDS011;40636;52.424;-1.948;2022-12-29T10:18:18;5.63;;;1.60;;
43363;SDS011;40636;52.424;-1.948;2022-12-29T10:21:14;5.57;;;1.13;;
43363;SDS011;40636;52.424;-1.948;2022-12-29T10:23:44;5.75;;;1.20;;
43363;SDS011;40636;52.424;-1.948;2022-12-29T10:26:16;10.27;;;1.40;;
43363;SDS011;40636;52.424;-1.948;2022-12-29T10:28:53;3.65;;;1.50;;
43363;SDS011;40636;52.424;-1.948;2022-12-29T10:31:35;9.73;;;1.50;;
43363;SDS011;40636;52.424;-1.948;2022-12-29T10:34:29;6.30;;;1.00;;
43363;SDS011;40636;52.424;-1.948;2022-12-29T10:36:57;8.60;;;1.40;;
43363;SDS011;40636;52.424;-1.948;2022-12-29T10:39:30;6.80;;;1.20;;
43363;SDS011;40636;52.424;-1.948;2022-12-29T10:42:11;8.20;;;1.00;;
43363;SDS011;40636;52.424;-1.948;2022-12-29T10:44:46;8.45;;;1.13;;
43363;SDS011;40636;52.424;-1.948;2022-12-29T10:47:14;6.78;;;2.33;;
43363;SDS011;40636;52.424;-1.948;2022-12-29T10:49:47;6.07;;;1.10;;
43363;SDS011;40636;52.424;-1.948;2022-12-29T10:52:15;8.25;;;1.58;;
43363;SDS011;40636;52.424;-1.948;2022-12-29T10:55:00;10.57;;;1.20;;
43363;SDS011;40636;52.424;-1.948;2022-12-29T10:57:45;7.60;;;1.42;;
43363;SDS011;40636;52.424;-1.948;2022-12-29T11:00:14;8.02;;;1.67;;
43363;SDS011;40636;52.424;-1.948;2022-12-29T11:02:47;3.03;;;1.60;;
43363;SDS011;40636;52.424;-1.948;2022-12-29T11:05:27;3.45;;;1.25;;
43363;SDS011;40636;52.424;-1.948;2022-12-29T11:08:12;4.00;;;1.50;;
43363;SDS011;40636;52.424;-1.948;2022-12-29T11:10:42;3.90;;;1.45;;
43363;SDS011;40636;52.424;-1.948;2022-12-29T11:13:24;8.77;;;1.50;;
43363;SDS011;40636;52.424;-1.948;2022-12-29T11:15:59;6.55;;;1.20;;
43363;SDS011;40636;52.424;-1.948;2022-12-29T11:18:32;3.72;;;1.15;;
43363;SDS011;40636;52.424;-1.948;2022-12-29T11:21:06;5.35;;;2.00;;
43363;SDS011;40636;52.424;-1.948;2022-12-29T11:23:55;4.68;;;1.65;;
43363;SDS011;40636;52.424;-1.948;2022-12-29T11:26:30;3.53;;;1.70;;
43363;SDS011;40636;52.424;-1.948;2022-12-29T11:29:05;7.80;;;1.88;;
43363;SDS011;40636;52.424;-1.948;2022-12-29T11:31:43;3.33;;;1.27;;
43363;SDS011;40636;52.424;-1.948;2022-12-29T11:34:33;7.03;;;1.25;;
43363;SDS011;40636;52.424;-1.948;2022-12-29T11:37:06;5.88;;;1.92;;
43363;SDS011;40636;52.424;-1.948;2022-12-29T11:39:39;8.73;;;1.65;;
43363;SDS011;40636;52.424;-1.948;2022-12-29T11:42:16;7.47;;;2.13;;
43363;SDS011;40636;52.424;-1.948;2022-12-29T11:44:45;6.28;;;1.75;;
43363;SDS011;40636;52.424;-1.948;2022-12-29T11:47:31;6.43;;;1.85;;
43363;SDS011;40636;52.424;-1.948;2022-12-29T11:50:00;6.70;;;1.73;;
43363;SDS011;40636;52.424;-1.948;2022-12-29T11:52:31;11.20;;;1.92;;
43363;SDS011;40636;52.424;-1.948;2022-12-29T11:55:02;6.75;;;1.42;;
43363;SDS011;40636;52.424;-1.948;2022-12-29T11:57:32;4.05;;;1.00;;
43363;SDS011;40636;52.424;-1.948;2022-12-29T12:00:02;10.15;;;1.48;;
43363;SDS011;40636;52.424;-1.948;2022-12-29T12:02:46;10.68;;;2.17;;
43363;SDS011;40636;52.424;-1.948;2022-12-29T12:08:36;4.82;;;2.05;;
43363;SDS011;40636;52.424;-1.948;2022-12-29T12:11:15;3.58;;;1.40;;
43363;SDS011;40636;52.424;-1.948;2022-12-29T12:19:02;2.17;;;1.00;;
43363;SDS011;40636;52.424;-1.948;2022-12-29T12:21:41;7.82;;;1.23;;
43363;SDS011;40636;52.424;-1.948;2022-12-29T12:24:30;3.88;;;1.25;;
43363;SDS011;40636;52.424;-1.948;2022-12-29T12:29:50;13.57;;;1.58;;
43363;SDS011;40636;52.424;-1.948;2022-12-29T12:35:16;6.05;;;1.67;;
43363;SDS011;40636;52.424;-1.948;2022-12-29T12:38:51;3.58;;;0.93;;
43363;SDS011;40636;52.424;-1.948;2022-12-29T12:43:57;7.38;;;1.08;;
43363;SDS011;40636;52.424;-1.948;2022-12-29T12:57:22;3.92;;;1.17;;
43363;SDS011;40636;52.424;-1.948;2022-12-29T13:05:25;8.05;;;1.52;;
43363;SDS011;40636;52.424;-1.948;2022-12-29T13:27:51;7.57;;;2.40;;
43363;SDS011;40636;52.424;-1.948;2022-12-29T13:30:27;5.47;;;1.85;;
43363;SDS011;40636;52.424;-1.948;2022-12-29T13:33:16;6.93;;;1.90;;
43363;SDS011;40636;52.424;-1.948;2022-12-29T13:36:22;3.45;;;1.50;;
43363;SDS011;40636;52.424;-1.948;2022-12-29T13:39:17;9.65;;;2.03;;
43363;SDS011;40636;52.424;-1.948;2022-12-29T13:41:51;2.47;;;1.20;;
43363;SDS011;40636;52.424;-1.948;2022-12-29T13:44:22;11.98;;;2.10;;
43363;SDS011;40636;52.424;-1.948;2022-12-29T13:47:01;3.35;;;1.45;;
43363;SDS011;40636;52.424;-1.948;2022-12-29T13:49:38;3.75;;;1.63;;
43363;SDS011;40636;52.424;-1.948;2022-12-29T13:52:15;5.78;;;2.00;;
43363;SDS011;40636;52.424;-1.948;2022-12-29T14:08:53;6.80;;;1.63;;
43363;SDS011;40636;52.424;-1.948;2022-12-29T14:11:48;7.50;;;1.80;;
43363;SDS011;40636;52.424;-1.948;2022-12-29T14:16:48;3.90;;;0.90;;
43363;SDS011;40636;52.424;-1.948;2022-12-29T14:21:55;8.75;;;1.40;;
43363;SDS011;40636;52.424;-1.948;2022-12-29T14:34:48;1.13;;;0.90;;
43363;SDS011;40636;52.424;-1.948;2022-12-29T14:40:17;6.13;;;1.25;;
43363;SDS011;40636;52.424;-1.948;2022-12-29T14:47:45;3.70;;;0.90;;
43363;SDS011;40636;52.424;-1.948;2022-12-29T14:50:18;2.75;;;1.00;;
43363;SDS011;40636;52.424;-1.948;2022-12-29T14:52:49;2.15;;;1.10;;
43363;SDS011;40636;52.424;-1.948;2022-12-29T14:55:46;4.60;;;1.08;;
43363;SDS011;40636;52.424;-1.948;2022-12-29T15:00:48;5.82;;;1.92;;
43363;SDS011;40636;52.424;-1.948;2022-12-29T15:03:23;9.82;;;1.80;;
43363;SDS011;40636;52.424;-1.948;2022-12-29T15:06:07;4.25;;;1.20;;
43363;SDS011;40636;52.424;-1.948;2022-12-29T15:08:44;10.55;;;1.98;;
43363;SDS011;40636;52.424;-1.948;2022-12-29T15:11:23;3.85;;;1.30;;
43363;SDS011;40636;52.424;-1.948;2022-12-29T15:13:57;2.05;;;1.23;;
43363;SDS011;40636;52.424;-1.948;2022-12-29T15:16:25;7.13;;;1.52;;
43363;SDS011;40636;52.424;-1.948;2022-12-29T15:18:56;2.10;;;0.95;;
43363;SDS011;40636;52.424;-1.948;2022-12-29T15:21:24;4.28;;;1.38;;
43363;SDS011;40636;52.424;-1.948;2022-12-29T15:23:53;3.42;;;1.15;;
43363;SDS011;40636;52.424;-1.948;2022-12-29T15:26:20;2.55;;;1.60;;
43363;SDS011;40636;52.424;-1.948;2022-12-29T15:28:52;4.18;;;1.63;;
43363;SDS011;40636;52.424;-1.948;2022-12-29T15:31:21;5.65;;;1.42;;
43363;SDS011;40636;52.424;-1.948;2022-12-29T15:34:02;8.50;;;1.67;;
43363;SDS011;40636;52.424;-1.948;2022-12-29T15:36:37;5.72;;;1.40;;
43363;SDS011;40636;52.424;-1.948;2022-12-29T15:39:20;2.10;;;1.60;;
43363;SDS011;40636;52.424;-1.948;2022-12-29T15:41:55;1.33;;;0.73;;
43363;SDS011;40636;52.424;-1.948;2022-12-29T15:47:08;6.10;;;2.72;;
43363;SDS011;40636;52.424;-1.948;2022-12-29T15:49:45;6.22;;;0.90;;
43363;SDS011;40636;52.424;-1.948;2022-12-29T15:52:17;6.40;;;1.17;;
43363;SDS011;40636;52.424;-1.948;2022-12-29T15:54:46;4.90;;;1.35;;
43363;SDS011;40636;52.424;-1.948;2022-12-29T15:57:21;3.42;;;1.23;;
43363;SDS011;40636;52.424;-1.948;2022-12-29T15:59:51;4.28;;;1.88;;
43363;SDS011;40636;52.424;-1.948;2022-12-29T16:02:21;5.18;;;1.38;;
43363;SDS011;40636;52.424;-1.948;2022-12-29T16:04:50;7.63;;;1.25;;
43363;SDS011;40636;52.424;-1.948;2022-12-29T16:10:21;3.05;;;1.58;;
43363;SDS011;40636;52.424;-1.948;2022-12-29T16:12:53;2.72;;;1.50;;
43363;SDS011;40636;52.424;-1.948;2022-12-29T16:15:20;5.38;;;1.30;;
43363;SDS011;40636;52.424;-1.948;2022-12-29T16:17:48;2.00;;;1.05;;
43363;SDS011;40636;52.424;-1.948;2022-12-29T16:20:19;8.25;;;1.75;;
43363;SDS011;40636;52.424;-1.948;2022-12-29T16:22:53;5.50;;;1.25;;
43363;SDS011;40636;52.424;-1.948;2022-12-29T16:25:23;3.35;;;1.60;;
43363;SDS011;40636;52.424;-1.948;2022-12-29T16:27:52;7.35;;;1.80;;
43363;SDS011;40636;52.424;-1.948;2022-12-29T16:30:21;2.28;;;1.40;;
43363;SDS011;40636;52.424;-1.948;2022-12-29T16:33:00;5.25;;;2.13;;
43363;SDS011;40636;52.424;-1.948;2022-12-29T16:35:39;5.10;;;1.17;;
43363;SDS011;40636;52.424;-1.948;2022-12-29T16:40:49;4.10;;;1.27;;
43363;SDS011;40636;52.424;-1.948;2022-12-29T16:43:20;5.78;;;1.38;;
43363;SDS011;40636;52.424;-1.948;2022-12-29T16:48:21;7.88;;;1.13;;
43363;SDS011;40636;52.424;-1.948;2022-12-29T16:50:51;6.25;;;1.40;;
43363;SDS011;40636;52.424;-1.948;2022-12-29T16:53:29;3.65;;;1.60;;
43363;SDS011;40636;52.424;-1.948;2022-12-29T16:56:34;4.47;;;1.15;;
43363;SDS011;40636;52.424;-1.948;2022-12-29T16:59:08;4.28;;;1.88;;
43363;SDS011;40636;52.424;-1.948;2022-12-29T17:01:52;2.55;;;1.10;;
43363;SDS011;40636;52.424;-1.948;2022-12-29T17:04:18;11.82;;;1.60;;
43363;SDS011;40636;52.424;-1.948;2022-12-29T17:06:45;4.43;;;1.38;;
43363;SDS011;40636;52.424;-1.948;2022-12-29T17:09:22;3.30;;;1.38;;
43363;SDS011;40636;52.424;-1.948;2022-12-29T17:11:52;4.80;;;1.10;;
43363;SDS011;40636;52.424;-1.948;2022-12-29T17:20:14;2.15;;;1.42;;
43363;SDS011;40636;52.424;-1.948;2022-12-29T17:22:43;3.80;;;1.48;;
43363;SDS011;40636;52.424;-1.948;2022-12-29T17:25:11;5.13;;;1.30;;
43363;SDS011;40636;52.424;-1.948;2022-12-29T17:27:43;7.72;;;1.42;;
43363;SDS011;40636;52.424;-1.948;2022-12-29T17:30:17;14.23;;;2.28;;
43363;SDS011;40636;52.424;-1.948;2022-12-29T17:35:35;3.00;;;2.05;;
43363;SDS011;40636;52.424;-1.948;2022-12-29T17:38:02;9.85;;;1.63;;
43363;SDS011;40636;52.424;-1.948;2022-12-29T17:40:41;3.70;;;1.38;;
43363;SDS011;40636;52.424;-1.948;2022-12-29T17:43:08;1.45;;;1.02;;